Bement, Illinois
Current Conditions -  °F | °C
As of 9:54 PM on Sunday 25 Jan 2015 (Local Time) from KDEC Reporting Station
Overcast Overcast  
Wind Chill: -7°   Ceiling: 1500
Heat Index: -1°   Visibility: 10mi
Dew Point: -2°   Wind: 14mph
Humidity: 96%   Direction: 360°N
Pressure: 29.95"   Gusts: NA
Location:  39.92°N, 88.57°W
Report Text: KDEC 260354Z 36012KT 10SM OVC015 M01/M02 A2995 RMK AO2 SLP147 T10111017
Loading
Personal Weather Stations






























Interactive Weather Map New forecast layout! Learn more

10-Day Weather Forecast

Advertisements
Track Severe Weather on mobile